Aérodrome :
LOGIN :

S'inscrire | Disclaimer

   EN    FR    IT 

 










Légende :    VFR   VFR Marginal   IFR   IFR Intensif   IFR Très Intensif
Visi : 
Plafond : 
>= 8 km
>= 3000ft
5 à 8 km
1000 à 3000 ft
1500m à 5 km
500 à 1000 ft
800 à 1500m
200 à 500 ft
< 800m
< 200 ft
Symboles :   Orages  Brouillard  Fortes neiges  Fortes précipitations  Vent > 20 kt
SIGMETs :   Divers  Orages  Givrage  Turbulence  Onde Orograph.  Cendres Volcan.







- Altitude de l'aérodrome : 2356 ft


LZTT - Poprad Tatry

DERNIER METAR :
  • 201500Z 16007KT 130V190 9999 FEW036 SCT053 16/10 Q1006 NOSIG

METARs EXPIRÉS :
  • 201430Z 15007KT 120V190 9999 FEW030 SCT053 16/10 Q1007 NOSIG
  • 201400Z 16005KT 070V220 9999 FEW030 SCT050 16/09 Q1007 NOSIG
  • 201330Z 15005KT 120V190 9999 FEW026 SCT040 16/10 Q1007 NOSIG
  • 201300Z 17006KT 140V210 9999 FEW026 SCT066 15/10 Q1007 NOSIG
  • 201230Z 12005KT 100V160 9999 FEW026 BKN036 15/10 Q1008 NOSIG
  • 201200Z 12005KT 100V160 9999 FEW026 BKN036 14/11 Q1008 NOSIG

TAF TAF LZTT
Valide du 20 à 12h jusqu'au 21 à 12h UTC


201100Z 2012/2112 15007KT 9999 FEW023 BKN035
TEMPO 2012/2020 SHRA SCT020 BKN030
PROB30
TEMPO 2014/2018 15012KT 4000 TSRA SCT020 SCT030CB BKN034
BECMG 2019/2021 25004KT SCT050
PROB40 2020/2106 2000 BCFG SCT003
BECMG 2106/2108 03004KT 5000 SHRA BKN010 BKN030
Pas de NOTAMs connus pour ce terrain.



MET'MAP, la Météo Aéronautique d'un coup d'oeil ! - Copyright ORBIFLY Décembre 2007 - Disclaimer

ORBIFLY MET'MAP TEAM :

Programmation & Développement : Alexandra Zaïnal
Conception & Développement : Baudouin d'Aumeries
Co-Programmation & Développement : Marc-Olivier Méhu
Soutien technique & logistique : Manuel Goepfert

Contact : metmap@orbifly.com




SOURCES & CREDITS :

   NOAA